createdAt,value
2018-07-16T00:00:22.895Z,20.90
2018-07-16T00:02:51.449Z,20.80
2018-07-16T00:05:19.911Z,20.80
2018-07-16T00:07:48.454Z,20.80
2018-07-16T00:10:16.900Z,20.90
2018-07-16T00:12:45.441Z,20.70
2018-07-16T00:15:13.934Z,20.60
2018-07-16T00:17:42.397Z,20.60
2018-07-16T00:20:10.843Z,20.50
2018-07-16T00:25:07.718Z,20.50
2018-07-16T00:30:04.505Z,20.40
2018-07-16T00:32:32.931Z,20.40
2018-07-16T00:35:01.416Z,20.30
2018-07-16T00:40:00.862Z,20.30
2018-07-16T00:42:29.314Z,20.20
2018-07-16T00:44:57.774Z,20.20
2018-07-16T00:49:54.325Z,20.10
2018-07-16T00:52:22.764Z,20.10
2018-07-16T00:54:51.228Z,20.10
2018-07-16T00:57:19.667Z,20.10
2018-07-16T00:59:48.119Z,20.10
2018-07-16T01:02:16.569Z,20.00
2018-07-16T01:04:45.025Z,20.00
2018-07-16T01:07:13.492Z,19.90
2018-07-16T01:09:42.621Z,19.80
2018-07-16T01:12:11.160Z,19.80
2018-07-16T01:14:39.620Z,19.80
2018-07-16T01:17:08.142Z,19.80
2018-07-16T01:19:36.985Z,19.80
2018-07-16T01:22:05.472Z,19.80
2018-07-16T01:24:33.900Z,19.80
2018-07-16T01:27:02.349Z,19.60
2018-07-16T01:29:31.750Z,19.70
2018-07-16T01:32:00.209Z,19.60
2018-07-16T01:36:56.749Z,19.50
2018-07-16T01:39:25.181Z,19.50
2018-07-16T01:41:53.610Z,19.50
2018-07-16T01:44:22.070Z,19.40
2018-07-16T01:46:50.521Z,19.30
2018-07-16T01:49:18.960Z,19.20
2018-07-16T01:54:15.557Z,19.10
2018-07-16T01:56:43.990Z,19.00
2018-07-16T02:01:40.501Z,18.90
2018-07-16T02:04:08.956Z,18.80
2018-07-16T02:06:37.405Z,18.80
2018-07-16T02:09:05.958Z,18.70
2018-07-16T02:11:34.388Z,18.70
2018-07-16T02:14:02.837Z,18.70
2018-07-16T02:16:31.293Z,18.70
2018-07-16T02:18:59.736Z,18.80
2018-07-16T02:21:28.180Z,18.90
2018-07-16T02:23:56.605Z,18.90
2018-07-16T02:26:25.080Z,18.80
2018-07-16T02:28:53.493Z,18.60
2018-07-16T02:31:21.929Z,18.60
2018-07-16T02:33:50.394Z,18.50
2018-07-16T02:36:18.825Z,18.50
2018-07-16T02:38:47.276Z,18.40
2018-07-16T02:41:15.752Z,18.40
2018-07-16T02:43:44.240Z,18.50
2018-07-16T02:51:08.918Z,18.40
2018-07-16T02:53:37.342Z,18.40
2018-07-16T02:56:05.837Z,18.30
2018-07-16T03:01:02.451Z,18.20
2018-07-16T03:03:30.885Z,18.20
2018-07-16T03:05:59.337Z,18.20
2018-07-16T03:08:27.788Z,18.10
2018-07-16T03:10:56.253Z,18.00
2018-07-16T03:13:24.670Z,18.00
2018-07-16T03:15:53.136Z,18.00
2018-07-16T03:18:21.552Z,18.00
2018-07-16T03:20:49.977Z,18.00
2018-07-16T03:23:18.425Z,18.00
2018-07-16T03:25:46.844Z,18.20
2018-07-16T03:28:15.300Z,18.10
2018-07-16T03:30:44.078Z,18.10
2018-07-16T03:33:12.505Z,18.10
2018-07-16T03:35:40.953Z,18.00
2018-07-16T03:38:09.409Z,18.00
2018-07-16T03:40:37.852Z,17.90
2018-07-16T03:43:06.340Z,17.90
2018-07-16T03:48:02.997Z,17.80
2018-07-16T03:50:31.388Z,17.80
2018-07-16T03:52:59.809Z,17.80
2018-07-16T03:55:28.246Z,17.70
2018-07-16T03:57:56.701Z,17.70
2018-07-16T04:00:25.144Z,17.70
2018-07-16T04:02:53.566Z,17.70
2018-07-16T04:05:22.045Z,17.70
2018-07-16T04:07:50.478Z,17.70
2018-07-16T04:10:18.908Z,17.70
2018-07-16T04:12:47.409Z,17.70
2018-07-16T04:15:15.870Z,17.70
2018-07-16T04:17:44.324Z,17.70
2018-07-16T04:20:12.768Z,17.70
2018-07-16T04:22:41.212Z,17.70
2018-07-16T04:25:09.708Z,17.70
2018-07-16T04:27:38.141Z,17.70
2018-07-16T04:35:02.840Z,17.80
2018-07-16T04:37:31.257Z,18.00
2018-07-16T04:39:59.846Z,17.90
2018-07-16T04:42:28.157Z,18.00
2018-07-16T04:44:56.600Z,17.90
2018-07-16T04:47:25.073Z,18.00
2018-07-16T04:49:53.512Z,18.00
2018-07-16T04:52:22.045Z,18.20
2018-07-16T04:54:50.534Z,18.30
2018-07-16T04:57:18.978Z,18.20
2018-07-16T04:59:47.393Z,18.30
2018-07-16T05:02:15.822Z,18.30
2018-07-16T05:04:44.234Z,18.20
2018-07-16T05:07:12.684Z,18.20
2018-07-16T05:09:41.112Z,18.20
2018-07-16T05:14:37.757Z,18.30
2018-07-16T05:17:06.204Z,18.40
2018-07-16T05:22:02.819Z,18.40
2018-07-16T05:24:31.251Z,18.40
2018-07-16T05:29:27.799Z,18.60
2018-07-16T05:31:56.449Z,18.70
2018-07-16T05:36:52.790Z,19.10
2018-07-16T05:39:21.832Z,19.90
2018-07-16T05:41:50.312Z,20.90
2018-07-16T05:44:18.764Z,22.10
2018-07-16T05:46:47.221Z,23.40
2018-07-16T05:49:15.910Z,24.40
2018-07-16T05:54:12.489Z,25.10
2018-07-16T05:56:40.940Z,25.50
2018-07-16T05:59:09.413Z,24.70
2018-07-16T06:01:37.860Z,24.80
2018-07-16T06:04:06.310Z,25.60
2018-07-16T06:06:34.793Z,26.20
2018-07-16T06:09:04.054Z,27.10
2018-07-16T06:11:32.574Z,27.60
2018-07-16T06:18:57.392Z,28.50
2018-07-16T06:21:25.869Z,29.10
2018-07-16T06:23:54.367Z,29.60
2018-07-16T06:26:22.826Z,29.60
2018-07-16T06:28:51.271Z,29.30
2018-07-16T06:31:19.737Z,29.60
2018-07-16T06:33:48.177Z,30.20
2018-07-16T06:36:16.630Z,30.00
2018-07-16T06:38:45.091Z,30.80
2018-07-16T06:41:13.770Z,31.50
2018-07-16T06:43:42.019Z,31.20
2018-07-16T06:46:10.481Z,31.50
2018-07-16T06:51:07.093Z,31.90
2018-07-16T06:53:35.565Z,32.00
2018-07-16T06:56:04.037Z,32.60
2018-07-16T06:58:32.517Z,33.30
2018-07-16T07:01:00.982Z,33.00
2018-07-16T07:03:29.441Z,33.00
2018-07-16T07:05:57.897Z,32.80
2018-07-16T07:08:26.358Z,32.40
2018-07-16T07:10:54.808Z,32.50
2018-07-16T07:13:23.273Z,32.10
2018-07-16T07:15:51.725Z,32.30
2018-07-16T07:18:20.168Z,33.00
2018-07-16T07:20:48.605Z,33.40
2018-07-16T07:23:17.076Z,33.50
2018-07-16T07:25:45.533Z,33.90
2018-07-16T07:28:13.993Z,34.70
2018-07-16T07:30:42.461Z,33.90
2018-07-16T07:33:10.910Z,33.30
2018-07-16T07:35:39.421Z,34.00
2018-07-16T07:38:07.910Z,34.00
2018-07-16T07:40:36.364Z,34.60
2018-07-16T07:43:04.861Z,34.90
2018-07-16T07:45:33.482Z,34.70
2018-07-16T07:48:01.932Z,34.90
2018-07-16T07:50:30.417Z,35.10
2018-07-16T07:52:58.898Z,34.30
2018-07-16T07:57:55.568Z,35.30
2018-07-16T08:05:20.299Z,36.60
2018-07-16T08:07:48.739Z,36.60
2018-07-16T08:10:17.249Z,35.60
2018-07-16T08:12:45.688Z,35.50
2018-07-16T08:15:14.169Z,35.80
2018-07-16T08:17:42.700Z,36.40
2018-07-16T08:20:11.182Z,36.70
2018-07-16T08:22:39.674Z,36.80
2018-07-16T08:25:08.181Z,37.00
2018-07-16T08:27:36.656Z,36.10
2018-07-16T08:32:33.300Z,36.80
2018-07-16T08:35:01.789Z,36.50
2018-07-16T08:37:30.265Z,37.20
2018-07-16T08:39:58.774Z,36.20
2018-07-16T08:42:27.255Z,36.50
2018-07-16T08:47:23.838Z,36.80
2018-07-16T08:49:52.302Z,37.40
2018-07-16T08:52:20.768Z,37.20
2018-07-16T08:54:49.264Z,37.20
2018-07-16T08:57:17.723Z,37.60
2018-07-16T08:59:46.181Z,38.60
2018-07-16T09:02:14.621Z,37.50
2018-07-16T09:04:43.083Z,37.20
2018-07-16T09:07:11.529Z,38.00
2018-07-16T09:09:40.020Z,37.40
2018-07-16T09:12:08.678Z,36.50
2018-07-16T09:14:37.183Z,37.00
2018-07-16T09:17:05.692Z,36.60
2018-07-16T09:19:34.175Z,37.10
2018-07-16T09:22:02.653Z,38.30
2018-07-16T09:24:31.076Z,37.90
2018-07-16T09:26:59.537Z,37.00
2018-07-16T09:29:27.976Z,36.50
2018-07-16T09:31:56.441Z,37.90
2018-07-16T09:36:53.026Z,38.30
2018-07-16T09:39:21.494Z,38.70
2018-07-16T09:41:50.016Z,39.50
2018-07-16T09:44:18.512Z,38.80
2018-07-16T09:46:46.969Z,38.00
2018-07-16T09:49:15.477Z,38.70
2018-07-16T09:51:43.943Z,39.40
2018-07-16T09:54:12.389Z,39.50
2018-07-16T09:56:40.833Z,38.80
2018-07-16T09:59:09.341Z,38.10
2018-07-16T10:01:46.238Z,37.60
2018-07-16T10:04:15.288Z,38.30
2018-07-16T10:09:11.861Z,39.00
2018-07-16T10:14:08.582Z,39.20
2018-07-16T10:16:37.055Z,39.50
2018-07-16T10:19:05.560Z,39.70
2018-07-16T10:21:34.029Z,38.60
2018-07-16T10:24:02.494Z,39.20
2018-07-16T10:26:30.966Z,38.80
2018-07-16T10:33:55.729Z,39.10
2018-07-16T10:36:24.125Z,38.90
2018-07-16T10:38:52.652Z,39.30
2018-07-16T10:41:21.091Z,39.20
2018-07-16T10:43:51.561Z,38.60
2018-07-16T10:46:20.002Z,38.50
2018-07-16T10:53:44.754Z,37.80
2018-07-16T10:58:41.369Z,37.60
2018-07-16T11:03:38.064Z,37.50
2018-07-16T11:06:12.180Z,38.10
2018-07-16T11:08:40.647Z,38.10
2018-07-16T11:13:37.252Z,38.20
2018-07-16T11:16:05.789Z,38.00
2018-07-16T11:18:34.254Z,38.70
2018-07-16T11:21:02.739Z,39.20
2018-07-16T11:23:31.206Z,39.00
2018-07-16T11:28:27.817Z,38.30
2018-07-16T11:30:56.248Z,38.80
2018-07-16T11:38:21.005Z,38.60
2018-07-16T11:43:17.519Z,38.30
2018-07-16T11:48:14.077Z,38.10
2018-07-16T11:50:42.674Z,37.50
2018-07-16T11:53:11.535Z,37.10
2018-07-16T12:17:53.254Z,38.00
2018-07-16T12:20:21.756Z,38.10
2018-07-16T12:22:50.160Z,37.80
2018-07-16T12:27:46.728Z,37.50
2018-07-16T12:42:35.826Z,37.80
2018-07-16T12:50:00.886Z,36.50
2018-07-16T12:52:29.310Z,35.80
2018-07-16T12:54:57.799Z,35.50
2018-07-16T12:57:26.932Z,35.90
2018-07-16T12:59:55.465Z,36.00
2018-07-16T13:02:23.889Z,36.20
2018-07-16T13:07:20.493Z,35.90
2018-07-16T13:09:48.941Z,36.20
2018-07-16T13:17:13.643Z,36.20
2018-07-16T13:19:42.174Z,36.60
2018-07-16T13:22:10.640Z,37.20
2018-07-16T13:27:07.245Z,36.80
2018-07-16T13:32:03.927Z,36.10
2018-07-16T13:34:32.392Z,34.90
2018-07-16T13:37:00.920Z,34.30
2018-07-16T13:39:29.352Z,34.60
2018-07-16T13:41:57.810Z,34.80
2018-07-16T13:46:54.507Z,34.70
2018-07-16T13:49:22.941Z,34.30
2018-07-16T13:51:51.388Z,34.60
2018-07-16T13:54:19.861Z,34.60
2018-07-16T13:56:48.330Z,34.60
2018-07-16T13:59:16.783Z,34.40
2018-07-16T14:04:13.320Z,34.60
2018-07-16T14:06:41.769Z,34.60
2018-07-16T14:09:10.204Z,34.80
2018-07-16T14:11:38.674Z,34.50
2018-07-16T14:14:07.229Z,34.40
2018-07-16T14:16:35.706Z,34.70
2018-07-16T14:19:04.167Z,34.60
2018-07-16T14:21:32.676Z,33.70
2018-07-16T14:24:01.129Z,33.30
2018-07-16T14:26:29.597Z,33.80
2018-07-16T14:28:58.063Z,33.90
2018-07-16T14:31:26.568Z,33.90
2018-07-16T14:33:55.755Z,34.00
2018-07-16T14:36:24.185Z,33.80
2018-07-16T14:38:52.652Z,33.50
2018-07-16T14:41:21.102Z,33.30
2018-07-16T14:43:49.577Z,33.40
2018-07-16T14:46:18.026Z,33.90
2018-07-16T14:48:46.509Z,34.20
2018-07-16T14:51:15.238Z,34.40
2018-07-16T14:53:44.313Z,34.40
2018-07-16T14:56:12.754Z,34.40
2018-07-16T14:58:41.280Z,34.80
2018-07-16T15:01:09.771Z,35.00
2018-07-16T15:03:38.258Z,34.70
2018-07-16T15:06:06.717Z,34.40
2018-07-16T15:08:35.178Z,34.40
2018-07-16T15:13:38.475Z,33.90
2018-07-16T15:16:06.934Z,33.90
2018-07-16T15:18:35.432Z,33.70
2018-07-16T15:21:04.076Z,33.90
2018-07-16T15:23:32.389Z,33.80
2018-07-16T15:26:00.869Z,33.40
2018-07-16T15:28:29.292Z,33.20
2018-07-16T15:30:57.725Z,33.30
2018-07-16T15:33:26.218Z,33.40
2018-07-16T15:35:54.661Z,33.40
2018-07-16T15:38:23.120Z,33.00
2018-07-16T15:40:51.560Z,32.80
2018-07-16T15:43:20.033Z,32.70
2018-07-16T15:45:48.742Z,32.70
2018-07-16T15:48:17.874Z,32.50
2018-07-16T15:50:46.256Z,32.40
2018-07-16T15:53:15.077Z,32.30
2018-07-16T15:55:43.544Z,32.20
2018-07-16T16:00:41.066Z,32.50
2018-07-16T16:03:09.672Z,32.60
2018-07-16T16:05:38.690Z,32.30
2018-07-16T16:08:07.149Z,32.30
2018-07-16T16:10:35.638Z,32.40
2018-07-16T16:13:04.117Z,32.60
2018-07-16T16:15:32.593Z,32.60
2018-07-16T16:18:01.041Z,32.40
2018-07-16T16:20:29.469Z,32.10
2018-07-16T16:22:57.962Z,32.00
2018-07-16T16:25:26.405Z,32.10
2018-07-16T16:27:54.858Z,32.00
2018-07-16T16:30:23.905Z,31.90
2018-07-16T16:35:20.538Z,31.90
2018-07-16T16:37:49.051Z,31.90
2018-07-16T16:42:45.702Z,31.50
2018-07-16T16:45:14.159Z,31.50
2018-07-16T16:47:42.654Z,31.00
2018-07-16T16:50:11.121Z,31.10
2018-07-16T16:52:39.576Z,31.00
2018-07-16T16:55:08.105Z,31.00
2018-07-16T16:57:36.652Z,31.00
2018-07-16T17:05:01.788Z,30.70
2018-07-16T17:07:30.228Z,30.70
2018-07-16T17:12:26.833Z,30.50
2018-07-16T17:14:55.292Z,30.50
2018-07-16T17:17:23.745Z,30.50
2018-07-16T17:19:52.355Z,30.40
2018-07-16T17:22:20.782Z,30.40
2018-07-16T17:24:49.255Z,30.30
2018-07-16T17:27:17.732Z,30.20
2018-07-16T17:29:46.208Z,29.90
2018-07-16T17:32:14.662Z,29.90
2018-07-16T17:34:43.286Z,29.80
2018-07-16T17:37:11.710Z,29.80
2018-07-16T17:39:40.183Z,29.60
2018-07-16T17:42:08.630Z,29.50
2018-07-16T17:44:37.121Z,29.50
2018-07-16T17:47:06.957Z,29.40
2018-07-16T17:49:35.438Z,29.30
2018-07-16T17:52:06.023Z,29.10
2018-07-16T17:54:34.609Z,29.20
2018-07-16T17:57:03.077Z,29.20
2018-07-16T17:59:31.550Z,29.10
2018-07-16T18:02:00.038Z,29.00
2018-07-16T18:04:28.505Z,28.90
2018-07-16T18:09:25.137Z,28.90
2018-07-16T18:11:53.630Z,28.90
2018-07-16T18:14:22.093Z,28.80
2018-07-16T18:16:50.617Z,28.80
2018-07-16T18:19:19.078Z,28.70
2018-07-16T18:21:47.622Z,28.60
2018-07-16T18:24:16.135Z,28.60
2018-07-16T18:26:44.585Z,28.50
2018-07-16T18:29:13.162Z,28.50
2018-07-16T18:31:41.654Z,28.40
2018-07-16T18:34:10.165Z,28.40
2018-07-16T18:36:38.635Z,28.30
2018-07-16T18:39:08.769Z,28.10
2018-07-16T18:41:37.306Z,28.10
2018-07-16T18:44:05.829Z,28.20
2018-07-16T18:46:34.381Z,28.10
2018-07-16T18:49:02.864Z,28.10
2018-07-16T18:51:31.606Z,28.10
2018-07-16T18:54:00.062Z,28.10
2018-07-16T18:56:28.605Z,28.10
2018-07-16T18:58:57.245Z,28.00
2018-07-16T19:01:25.752Z,27.90
2018-07-16T19:03:54.325Z,27.80
2018-07-16T19:06:22.860Z,27.70
2018-07-16T19:08:51.335Z,27.60
2018-07-16T19:11:19.826Z,27.40
2018-07-16T19:16:16.447Z,27.30
2018-07-16T19:18:44.920Z,27.20
2018-07-16T19:21:13.414Z,27.10
2018-07-16T19:23:41.896Z,26.90
2018-07-16T19:26:10.377Z,26.80
2018-07-16T19:28:38.896Z,26.90
2018-07-16T19:31:07.372Z,26.90
2018-07-16T19:33:35.819Z,26.80
2018-07-16T19:36:04.297Z,26.80
2018-07-16T19:38:32.839Z,26.60
2018-07-16T19:43:29.420Z,26.50
2018-07-16T19:48:26.029Z,26.30
2018-07-16T19:50:54.491Z,26.20
2018-07-16T19:53:22.991Z,26.10
2018-07-16T19:55:51.428Z,25.90
2018-07-16T19:58:19.869Z,25.80
2018-07-16T20:00:48.309Z,25.70
2018-07-16T20:03:16.782Z,25.60
2018-07-16T20:08:13.343Z,25.50
2018-07-16T20:10:41.846Z,25.50
2018-07-16T20:13:10.287Z,25.50
2018-07-16T20:15:38.938Z,25.40
2018-07-16T20:18:07.332Z,25.30
2018-07-16T20:20:51.311Z,25.20
2018-07-16T20:23:19.905Z,25.20
2018-07-16T20:25:48.625Z,25.10
2018-07-16T20:28:17.315Z,25.10
2018-07-16T20:30:45.782Z,24.90
2018-07-16T20:33:14.252Z,24.90
2018-07-16T20:35:49.521Z,24.90
2018-07-16T20:38:18.047Z,24.90
2018-07-16T20:40:47.004Z,24.90
2018-07-16T20:43:15.453Z,24.90
2018-07-16T20:45:43.962Z,24.80
2018-07-16T20:48:12.384Z,24.80
2018-07-16T20:50:40.872Z,24.80
2018-07-16T20:53:09.341Z,24.80
2018-07-16T20:55:37.831Z,24.70
2018-07-16T20:58:06.430Z,24.60
2018-07-16T21:00:34.889Z,24.40
2018-07-16T21:03:03.380Z,24.20
2018-07-16T21:05:31.853Z,24.00
2018-07-16T21:08:00.301Z,23.90
2018-07-16T21:10:28.786Z,23.80
2018-07-16T21:12:57.308Z,23.80
2018-07-16T21:15:25.776Z,23.80
2018-07-16T21:17:54.269Z,23.80
2018-07-16T21:20:22.706Z,23.80
2018-07-16T21:22:51.192Z,23.90
2018-07-16T21:27:47.837Z,23.80
2018-07-16T21:30:16.544Z,23.80
2018-07-16T21:32:44.965Z,23.80
2018-07-16T21:35:13.426Z,23.70
2018-07-16T21:37:42.450Z,23.70
2018-07-16T21:40:11.190Z,23.60
2018-07-16T21:42:39.868Z,23.60
2018-07-16T21:45:08.320Z,23.60
2018-07-16T21:47:36.812Z,23.50
2018-07-16T21:50:05.545Z,23.30
2018-07-16T21:55:02.244Z,23.40
2018-07-16T21:57:30.709Z,23.30
2018-07-16T21:59:59.241Z,23.20
2018-07-16T22:02:27.688Z,23.10
2018-07-16T22:04:56.236Z,23.00
2018-07-16T22:07:24.922Z,22.90
2018-07-16T22:09:53.635Z,22.80
2018-07-16T22:12:22.321Z,22.90
2018-07-16T22:14:50.773Z,22.80
2018-07-16T22:17:19.240Z,22.70
2018-07-16T22:19:47.668Z,22.70
2018-07-16T22:22:16.145Z,22.50
2018-07-16T22:24:44.884Z,22.60
2018-07-16T22:27:13.645Z,22.60
2018-07-16T22:29:42.308Z,22.50
2018-07-16T22:32:11.109Z,22.50
2018-07-16T22:34:39.549Z,22.40
2018-07-16T22:39:36.120Z,22.30
2018-07-16T22:42:04.806Z,22.10
2018-07-16T22:47:01.830Z,22.00
2018-07-16T22:49:30.283Z,21.90
2018-07-16T22:51:58.731Z,21.90
2018-07-16T22:54:27.190Z,21.90
2018-07-16T22:56:55.638Z,21.90
2018-07-16T22:59:24.081Z,22.00
2018-07-16T23:01:52.513Z,22.00
2018-07-16T23:04:20.969Z,21.90
2018-07-16T23:06:49.395Z,21.90
2018-07-16T23:09:17.852Z,21.90
2018-07-16T23:11:46.307Z,21.90
2018-07-16T23:16:42.966Z,21.80
2018-07-16T23:19:11.405Z,21.70
2018-07-16T23:21:39.853Z,21.70
2018-07-16T23:24:08.280Z,21.70
2018-07-16T23:26:36.747Z,21.70
2018-07-16T23:29:05.293Z,21.70
2018-07-16T23:34:01.928Z,21.60
2018-07-16T23:36:30.389Z,21.60
2018-07-16T23:38:58.856Z,21.50
2018-07-16T23:41:27.298Z,21.50
2018-07-16T23:43:55.846Z,21.50
2018-07-16T23:46:24.317Z,21.60
2018-07-16T23:48:52.755Z,21.60
2018-07-16T23:51:21.234Z,21.60
2018-07-16T23:53:49.665Z,21.50
2018-07-16T23:56:18.109Z,21.30
2018-07-16T23:58:46.537Z,21.10
